createdAt,value
2023-11-17T00:02:07.985Z,19.27
2023-11-17T00:04:34.649Z,17.93
2023-11-17T00:07:01.263Z,16.83
2023-11-17T00:09:28.257Z,18.60
2023-11-17T00:11:54.828Z,17.47
2023-11-17T00:14:21.345Z,16.30
2023-11-17T00:16:48.649Z,14.27
2023-11-17T00:19:15.736Z,13.93
2023-11-17T00:21:42.463Z,13.23
2023-11-17T00:24:10.601Z,13.33
2023-11-17T00:26:37.172Z,13.20
2023-11-17T00:29:03.859Z,12.87
2023-11-17T00:31:30.772Z,13.20
2023-11-17T00:33:57.510Z,14.13
2023-11-17T00:36:24.113Z,14.13
2023-11-17T00:38:51.926Z,14.90
2023-11-17T00:41:24.680Z,15.07
2023-11-17T00:43:57.318Z,14.43
2023-11-17T00:46:24.020Z,15.50
2023-11-17T00:48:50.814Z,15.93
2023-11-17T00:51:20.142Z,16.20
2023-11-17T00:53:46.787Z,15.83
2023-11-17T00:56:13.332Z,15.13
2023-11-17T00:58:39.936Z,17.63
2023-11-17T01:01:08.381Z,16.80
2023-11-17T01:03:35.132Z,17.57
2023-11-17T01:06:01.773Z,18.37
2023-11-17T01:08:29.954Z,16.57
2023-11-17T01:10:56.982Z,19.50
2023-11-17T01:13:23.553Z,20.10
2023-11-17T01:15:50.192Z,20.17
2023-11-17T01:18:16.849Z,20.60
2023-11-17T01:20:43.405Z,21.37
2023-11-17T01:23:09.930Z,21.20
2023-11-17T01:25:37.390Z,23.30
2023-11-17T01:28:04.924Z,22.23
2023-11-17T01:30:31.670Z,22.13
2023-11-17T01:32:58.794Z,21.67
2023-11-17T01:35:25.965Z,22.50
2023-11-17T01:37:52.629Z,20.97
2023-11-17T01:40:23.667Z,19.80
2023-11-17T01:42:50.569Z,21.03
2023-11-17T01:45:17.176Z,20.10
2023-11-17T01:47:43.776Z,19.80
2023-11-17T01:50:10.906Z,20.73
2023-11-17T01:52:38.487Z,19.10
2023-11-17T01:55:07.157Z,19.03
2023-11-17T01:57:35.766Z,17.33
2023-11-17T02:00:07.935Z,19.43
2023-11-17T02:02:35.214Z,18.60
2023-11-17T02:05:05.319Z,18.50
2023-11-17T02:07:34.145Z,19.23
2023-11-17T02:10:08.057Z,19.90
2023-11-17T02:12:48.634Z,17.60
2023-11-17T02:15:16.246Z,17.47
2023-11-17T02:17:43.815Z,20.20
2023-11-17T02:20:13.982Z,17.03
2023-11-17T02:22:42.261Z,17.20
2023-11-17T02:25:24.879Z,17.33
2023-11-17T02:28:09.312Z,18.00
2023-11-17T02:30:36.035Z,17.70
2023-11-17T02:33:09.466Z,17.57
2023-11-17T02:35:36.702Z,18.13
2023-11-17T02:38:06.780Z,18.17
2023-11-17T02:40:33.545Z,18.17
2023-11-17T02:43:00.534Z,17.67
2023-11-17T02:45:27.070Z,17.40
2023-11-17T02:47:57.624Z,19.10
2023-11-17T02:50:33.184Z,18.00
2023-11-17T02:53:20.033Z,13.60
2023-11-17T02:55:46.778Z,14.83
2023-11-17T02:58:13.815Z,15.30
2023-11-17T03:00:40.430Z,15.17
2023-11-17T03:03:07.070Z,15.27
2023-11-17T03:05:33.651Z,15.97
2023-11-17T03:08:01.978Z,16.47
2023-11-17T03:10:28.578Z,15.97
2023-11-17T03:12:58.281Z,16.50
2023-11-17T03:15:25.352Z,15.93
2023-11-17T03:17:53.206Z,17.07
2023-11-17T03:20:19.998Z,17.63
2023-11-17T03:22:46.524Z,16.90
2023-11-17T03:25:16.553Z,15.30
2023-11-17T03:27:44.010Z,16.67
2023-11-17T03:30:11.515Z,17.07
2023-11-17T03:32:38.248Z,17.50
2023-11-17T03:35:05.401Z,16.47
2023-11-17T03:37:32.387Z,17.73
2023-11-17T03:39:58.971Z,14.83
2023-11-17T03:42:25.497Z,18.43
2023-11-17T03:44:55.384Z,17.10
2023-11-17T03:47:21.991Z,16.63
2023-11-17T03:49:48.838Z,15.27
2023-11-17T03:52:16.682Z,15.70
2023-11-17T03:54:43.480Z,14.07
2023-11-17T03:57:11.471Z,14.90
2023-11-17T03:59:38.392Z,13.50
2023-11-17T04:02:05.177Z,13.63
2023-11-17T04:04:32.501Z,12.77
2023-11-17T04:06:59.233Z,12.13
2023-11-17T04:09:26.833Z,12.03
2023-11-17T04:11:53.732Z,14.10
2023-11-17T04:14:23.725Z,14.30
2023-11-17T04:16:51.258Z,13.87
2023-11-17T04:19:21.791Z,13.43
2023-11-17T04:21:50.826Z,14.80
2023-11-17T04:24:18.620Z,13.63
2023-11-17T04:26:45.963Z,13.23
2023-11-17T04:29:12.735Z,10.80
2023-11-17T04:31:39.463Z,8.97
2023-11-17T04:34:07.226Z,8.03
2023-11-17T04:36:34.008Z,8.10
2023-11-17T04:39:00.849Z,7.60
2023-11-17T04:41:28.345Z,7.37
2023-11-17T04:43:54.952Z,7.53
2023-11-17T04:46:21.550Z,7.03
2023-11-17T04:48:48.430Z,7.50
2023-11-17T04:51:15.279Z,7.57
2023-11-17T04:53:41.822Z,7.97
2023-11-17T04:56:08.726Z,7.43
2023-11-17T04:58:35.554Z,7.33
2023-11-17T05:01:02.254Z,7.33
2023-11-17T05:05:57.246Z,7.43
2023-11-17T05:08:23.916Z,7.57
2023-11-17T05:10:50.492Z,7.30
2023-11-17T05:13:17.141Z,7.50
2023-11-17T05:15:50.380Z,6.77
2023-11-17T05:18:16.993Z,7.57
2023-11-17T05:20:43.567Z,7.27
2023-11-17T05:23:13.950Z,5.93
2023-11-17T05:25:43.523Z,5.40
2023-11-17T05:28:10.091Z,5.90
2023-11-17T05:30:36.908Z,4.60
2023-11-17T05:33:03.962Z,4.73
2023-11-17T05:35:30.557Z,4.40
2023-11-17T05:37:57.387Z,4.37
2023-11-17T05:40:23.981Z,4.33
2023-11-17T05:42:50.535Z,3.97
2023-11-17T05:45:17.115Z,3.27
2023-11-17T05:47:43.619Z,3.23
2023-11-17T05:50:13.459Z,2.90
2023-11-17T05:52:40.968Z,2.43
2023-11-17T05:55:07.835Z,3.00
2023-11-17T05:57:34.457Z,2.97
2023-11-17T06:00:03.662Z,3.60
2023-11-17T06:02:30.359Z,3.27
2023-11-17T06:04:56.990Z,3.53
2023-11-17T06:07:26.820Z,5.80
2023-11-17T06:09:55.583Z,7.03
2023-11-17T06:12:22.718Z,6.83
2023-11-17T06:14:49.608Z,6.87
2023-11-17T06:17:16.219Z,7.00
2023-11-17T06:19:43.496Z,7.77
2023-11-17T06:22:10.872Z,5.37
2023-11-17T06:24:37.927Z,5.70
2023-11-17T06:27:05.950Z,5.93
2023-11-17T06:29:32.760Z,5.50
2023-11-17T06:31:59.714Z,4.90
2023-11-17T06:34:26.536Z,5.63
2023-11-17T06:36:53.514Z,5.53
2023-11-17T06:39:20.365Z,5.33
2023-11-17T06:41:50.410Z,5.03
2023-11-17T06:44:17.482Z,4.87
2023-11-17T06:46:46.889Z,5.87
2023-11-17T06:49:13.846Z,4.70
2023-11-17T06:51:44.576Z,4.63
2023-11-17T06:54:15.245Z,4.30
2023-11-17T06:56:44.739Z,4.33
2023-11-17T06:59:11.694Z,4.30
2023-11-17T07:01:38.937Z,4.40
2023-11-17T07:04:09.099Z,4.53
2023-11-17T07:06:36.002Z,5.40
2023-11-17T07:09:16.980Z,6.90
2023-11-17T07:11:55.745Z,7.53
2023-11-17T07:14:23.408Z,8.20
2023-11-17T07:16:50.341Z,10.53
2023-11-17T07:19:21.011Z,10.80
2023-11-17T07:21:48.148Z,10.13
2023-11-17T07:24:18.216Z,12.83
2023-11-17T07:26:47.940Z,15.87
2023-11-17T07:29:14.884Z,11.20
2023-11-17T07:31:45.377Z,11.90
2023-11-17T07:34:17.417Z,10.00
2023-11-17T07:36:45.717Z,10.50
2023-11-17T07:39:14.496Z,9.03
2023-11-17T07:41:41.278Z,7.30
2023-11-17T07:44:09.263Z,10.50
2023-11-17T07:46:36.278Z,7.27
2023-11-17T07:49:11.868Z,18.50
2023-11-17T07:51:38.545Z,11.63
2023-11-17T07:54:08.193Z,12.53
2023-11-17T07:56:34.797Z,7.73
2023-11-17T07:59:01.343Z,7.93
2023-11-17T08:01:28.140Z,5.60
2023-11-17T08:03:55.301Z,7.60
2023-11-17T08:06:22.033Z,8.00
2023-11-17T08:08:49.377Z,9.57
2023-11-17T08:11:16.874Z,7.03
2023-11-17T08:13:43.530Z,8.93
2023-11-17T08:16:10.674Z,6.93
2023-11-17T08:18:39.268Z,7.77
2023-11-17T08:21:08.014Z,6.00
2023-11-17T08:23:34.839Z,6.73
2023-11-17T08:26:01.899Z,8.17
2023-11-17T08:28:29.345Z,7.93
2023-11-17T08:30:56.690Z,7.20
2023-11-17T08:33:23.351Z,6.93
2023-11-17T08:35:49.886Z,6.23
2023-11-17T08:38:18.066Z,7.57
2023-11-17T08:40:46.240Z,6.47
2023-11-17T08:43:13.217Z,7.03
2023-11-17T08:45:40.469Z,7.30
2023-11-17T08:48:08.439Z,7.07
2023-11-17T08:50:35.391Z,8.30
2023-11-17T08:53:01.952Z,6.83
2023-11-17T08:55:29.639Z,8.63
2023-11-17T08:57:56.370Z,7.70
2023-11-17T09:00:31.905Z,10.00
2023-11-17T09:02:59.922Z,10.87
2023-11-17T09:05:26.915Z,12.20
2023-11-17T09:07:53.655Z,13.00
2023-11-17T09:10:21.075Z,12.60
2023-11-17T09:12:49.147Z,12.43
2023-11-17T09:15:15.923Z,12.70
2023-11-17T09:17:42.704Z,12.90
2023-11-17T09:20:10.200Z,12.53
2023-11-17T09:22:37.163Z,12.40
2023-11-17T09:25:04.852Z,12.07
2023-11-17T09:27:31.465Z,11.10
2023-11-17T09:29:58.078Z,11.53
2023-11-17T09:32:24.589Z,11.97
2023-11-17T09:34:51.135Z,10.07
2023-11-17T09:37:17.944Z,12.60
2023-11-17T09:39:44.540Z,12.33
2023-11-17T09:42:12.075Z,12.40
2023-11-17T09:44:39.647Z,12.87
2023-11-17T09:47:14.736Z,12.23
2023-11-17T09:49:41.302Z,12.13
2023-11-17T09:52:08.308Z,13.13
2023-11-17T09:54:35.957Z,12.53
2023-11-17T09:57:03.112Z,11.87
2023-11-17T09:59:30.454Z,13.63
2023-11-17T10:01:58.581Z,13.17
2023-11-17T10:04:26.293Z,11.20
2023-11-17T10:06:52.836Z,10.63
2023-11-17T10:09:19.339Z,11.90
2023-11-17T10:11:48.075Z,13.53
2023-11-17T10:14:14.934Z,13.80
2023-11-17T10:16:43.929Z,12.50
2023-11-17T10:19:14.743Z,14.80
2023-11-17T10:21:43.434Z,14.17
2023-11-17T10:24:09.976Z,15.00
2023-11-17T10:26:37.273Z,16.57
2023-11-17T10:29:06.512Z,17.37
2023-11-17T10:31:39.243Z,18.00
2023-11-17T10:34:12.547Z,17.70
2023-11-17T10:36:54.840Z,14.87
2023-11-17T10:39:21.382Z,16.63
2023-11-17T10:41:47.897Z,16.47
2023-11-17T10:44:20.497Z,17.97
2023-11-17T10:46:48.792Z,18.13
2023-11-17T10:49:20.686Z,17.00
2023-11-17T10:51:47.875Z,16.80
2023-11-17T10:54:14.987Z,17.83
2023-11-17T10:56:41.988Z,15.80
2023-11-17T10:59:17.114Z,18.60
2023-11-17T11:01:44.383Z,17.97
2023-11-17T11:04:11.459Z,15.80
2023-11-17T11:06:44.274Z,16.50
2023-11-17T11:09:15.742Z,15.53
2023-11-17T11:11:42.324Z,16.03
2023-11-17T11:14:08.917Z,15.23
2023-11-17T11:16:35.553Z,17.73
2023-11-17T11:19:02.710Z,17.70
2023-11-17T11:21:35.208Z,16.67
2023-11-17T11:24:02.807Z,16.30
2023-11-17T11:26:29.912Z,17.67
2023-11-17T11:28:56.953Z,11.80
2023-11-17T11:31:24.069Z,13.30
2023-11-17T11:33:51.123Z,14.57
2023-11-17T11:36:17.846Z,11.37
2023-11-17T11:38:48.476Z,10.67
2023-11-17T11:41:17.233Z,10.13
2023-11-17T11:43:46.969Z,8.37
2023-11-17T11:46:17.037Z,8.87
2023-11-17T11:48:48.837Z,8.23
2023-11-17T11:51:15.406Z,8.33
2023-11-17T11:53:44.146Z,7.23
2023-11-17T11:56:15.490Z,8.83
2023-11-17T11:58:46.384Z,10.70
2023-11-17T12:01:17.565Z,9.50
2023-11-17T12:03:47.170Z,10.00
2023-11-17T12:06:21.060Z,10.03
2023-11-17T12:08:53.023Z,9.53
2023-11-17T12:11:19.597Z,10.47
2023-11-17T12:13:55.842Z,8.93
2023-11-17T12:16:26.892Z,10.13
2023-11-17T12:18:53.543Z,7.30
2023-11-17T12:21:20.942Z,7.80
2023-11-17T12:23:57.262Z,6.30
2023-11-17T12:26:28.203Z,6.23
2023-11-17T12:28:55.235Z,7.60
2023-11-17T12:31:22.126Z,7.07
2023-11-17T12:33:51.008Z,6.50
2023-11-17T12:36:26.578Z,8.13
2023-11-17T12:38:53.865Z,7.50
2023-11-17T12:41:26.979Z,8.37
2023-11-17T12:43:56.735Z,7.03
2023-11-17T12:46:27.294Z,7.43
2023-11-17T12:48:54.015Z,7.20
2023-11-17T12:51:24.687Z,5.40
2023-11-17T12:53:52.116Z,5.83
2023-11-17T12:56:19.127Z,5.77
2023-11-17T12:58:45.805Z,4.47
2023-11-17T13:01:15.641Z,4.70
2023-11-17T13:03:42.762Z,6.60
2023-11-17T13:06:09.507Z,7.63
2023-11-17T13:08:39.201Z,7.30
2023-11-17T13:11:09.328Z,7.33
2023-11-17T13:13:38.956Z,8.47
2023-11-17T13:16:11.297Z,6.17
2023-11-17T13:18:40.826Z,5.27
2023-11-17T13:21:08.674Z,3.63
2023-11-17T13:23:35.265Z,4.63
2023-11-17T13:26:02.187Z,4.20
2023-11-17T13:28:28.774Z,4.90
2023-11-17T13:30:55.324Z,4.10
2023-11-17T13:33:38.875Z,5.20
2023-11-17T13:36:06.030Z,3.53
2023-11-17T13:38:32.851Z,3.90
2023-11-17T13:40:59.371Z,3.50
2023-11-17T13:43:26.284Z,3.70
2023-11-17T13:45:52.870Z,4.80
2023-11-17T13:48:19.586Z,5.70
2023-11-17T13:50:58.538Z,4.00
2023-11-17T13:53:28.394Z,4.97
2023-11-17T13:55:57.139Z,3.87
2023-11-17T13:58:24.844Z,4.43
2023-11-17T14:00:51.529Z,3.80
2023-11-17T14:03:18.066Z,4.03
2023-11-17T14:05:46.702Z,3.77
2023-11-17T14:08:14.524Z,2.50
2023-11-17T14:10:41.142Z,3.60
2023-11-17T14:13:07.755Z,2.87
2023-11-17T14:15:43.300Z,3.70
2023-11-17T14:18:18.805Z,3.60
2023-11-17T14:20:45.789Z,3.73
2023-11-17T14:23:12.432Z,3.07
2023-11-17T14:25:39.046Z,3.47
2023-11-17T14:28:05.590Z,4.30
2023-11-17T14:30:33.537Z,4.80
2023-11-17T14:33:00.513Z,4.97
2023-11-17T14:35:27.295Z,5.63
2023-11-17T14:37:53.856Z,4.73
2023-11-17T14:40:20.622Z,6.70
2023-11-17T14:42:47.260Z,5.13
2023-11-17T14:45:16.289Z,5.07
2023-11-17T14:47:44.861Z,5.30
2023-11-17T14:50:15.269Z,4.27
2023-11-17T14:52:42.526Z,5.10
2023-11-17T14:55:10.343Z,4.83
2023-11-17T14:57:37.943Z,5.30
2023-11-17T15:00:20.985Z,5.47
2023-11-17T15:02:48.383Z,5.80
2023-11-17T15:05:20.901Z,5.00
2023-11-17T15:07:48.826Z,5.53
2023-11-17T15:10:15.918Z,4.73
2023-11-17T15:12:43.585Z,6.90
2023-11-17T15:15:25.650Z,6.13
2023-11-17T15:17:55.034Z,5.33
2023-11-17T15:20:22.493Z,6.30
2023-11-17T15:22:49.975Z,6.23
2023-11-17T15:25:19.249Z,5.80
2023-11-17T15:27:45.984Z,5.70
2023-11-17T15:30:15.293Z,5.93
2023-11-17T15:32:42.788Z,4.60
2023-11-17T15:35:12.740Z,6.23
2023-11-17T15:37:45.249Z,6.90
2023-11-17T15:40:14.169Z,6.50
2023-11-17T15:42:45.020Z,6.63
2023-11-17T15:45:13.105Z,6.33
2023-11-17T15:47:44.447Z,6.83
2023-11-17T15:50:14.655Z,7.00
2023-11-17T15:52:46.233Z,6.80
2023-11-17T15:55:16.160Z,7.57
2023-11-17T15:57:46.301Z,8.10
2023-11-17T16:00:14.524Z,7.10
2023-11-17T16:02:44.733Z,7.27
2023-11-17T16:05:17.363Z,6.37
2023-11-17T16:07:44.863Z,6.80
2023-11-17T16:10:17.177Z,6.83
2023-11-17T16:12:44.552Z,6.50
2023-11-17T16:15:11.605Z,8.03
2023-11-17T16:17:39.004Z,6.90
2023-11-17T16:20:07.303Z,7.30
2023-11-17T16:22:34.208Z,6.37
2023-11-17T16:25:01.521Z,6.10
2023-11-17T16:27:28.039Z,7.00
2023-11-17T16:29:54.945Z,6.13
2023-11-17T16:32:21.679Z,5.73
2023-11-17T16:34:49.301Z,5.17
2023-11-17T16:37:16.001Z,6.60
2023-11-17T16:39:42.659Z,8.93
2023-11-17T16:42:11.852Z,6.80
2023-11-17T16:44:38.929Z,7.63
2023-11-17T16:47:05.715Z,6.80
2023-11-17T16:49:32.559Z,6.80
2023-11-17T16:51:59.738Z,7.47
2023-11-17T16:54:26.736Z,7.03
2023-11-17T16:56:53.398Z,6.63
2023-11-17T16:59:19.989Z,6.13
2023-11-17T17:01:46.956Z,6.83
2023-11-17T17:04:13.580Z,5.13
2023-11-17T17:06:43.687Z,6.17
2023-11-17T17:09:15.108Z,5.17
2023-11-17T17:11:41.956Z,4.47
2023-11-17T17:14:17.168Z,4.63
2023-11-17T17:16:49.155Z,3.83
2023-11-17T17:19:15.741Z,3.97
2023-11-17T17:21:42.683Z,3.40
2023-11-17T17:24:09.456Z,3.83
2023-11-17T17:26:39.744Z,3.50
2023-11-17T17:29:11.142Z,5.47
2023-11-17T17:31:38.373Z,5.40
2023-11-17T17:34:09.283Z,4.23
2023-11-17T17:36:35.889Z,4.10
2023-11-17T17:39:02.434Z,5.47
2023-11-17T17:41:30.590Z,6.33
2023-11-17T17:43:57.596Z,4.83
2023-11-17T17:46:27.242Z,4.83
2023-11-17T17:48:53.856Z,5.53
2023-11-17T17:51:20.605Z,4.43
2023-11-17T17:53:47.281Z,6.53
2023-11-17T17:56:13.895Z,6.47
2023-11-17T17:58:40.546Z,7.53
2023-11-17T18:01:08.874Z,6.10
2023-11-17T18:03:36.002Z,5.73
2023-11-17T18:06:03.517Z,8.83
2023-11-17T18:08:32.925Z,6.73
2023-11-17T18:10:59.496Z,6.10
2023-11-17T18:13:26.879Z,6.50
2023-11-17T18:15:53.658Z,6.03
2023-11-17T18:18:21.526Z,6.17
2023-11-17T18:20:48.043Z,6.23
2023-11-17T18:23:14.571Z,6.03
2023-11-17T18:25:42.011Z,6.40
2023-11-17T18:28:09.765Z,6.87
2023-11-17T18:30:36.876Z,8.40
2023-11-17T18:33:03.716Z,7.37
2023-11-17T18:35:30.354Z,5.20
2023-11-17T18:37:56.972Z,5.20
2023-11-17T18:40:26.416Z,5.47
2023-11-17T18:42:53.854Z,4.83
2023-11-17T18:45:22.671Z,4.27
2023-11-17T18:47:49.569Z,4.90
2023-11-17T18:50:16.671Z,5.10
2023-11-17T18:52:47.883Z,4.57
2023-11-17T18:55:15.765Z,5.93
2023-11-17T18:57:45.672Z,5.40
2023-11-17T19:00:19.266Z,4.83
2023-11-17T19:02:47.745Z,4.53
2023-11-17T19:05:16.995Z,4.50
2023-11-17T19:07:45.366Z,4.63
2023-11-17T19:10:12.404Z,3.73
2023-11-17T19:12:39.246Z,5.13
2023-11-17T19:15:08.232Z,3.97
2023-11-17T19:17:35.326Z,6.97
2023-11-17T19:20:05.764Z,6.47
2023-11-17T19:22:32.916Z,6.87
2023-11-17T19:25:01.847Z,6.73
2023-11-17T19:27:30.136Z,12.80
2023-11-17T19:29:58.488Z,9.70
2023-11-17T19:32:25.096Z,6.57
2023-11-17T19:34:53.110Z,9.03
2023-11-17T19:37:19.955Z,9.93
2023-11-17T19:39:47.236Z,9.70
2023-11-17T19:42:14.021Z,9.53
2023-11-17T19:44:49.991Z,8.07
2023-11-17T19:47:19.807Z,7.13
2023-11-17T19:49:48.076Z,9.43
2023-11-17T19:52:14.836Z,5.97
2023-11-17T19:54:46.354Z,4.73
2023-11-17T19:57:12.952Z,5.20
2023-11-17T19:59:40.903Z,6.53
2023-11-17T20:02:07.884Z,5.37
2023-11-17T20:04:34.943Z,7.20
2023-11-17T20:07:02.181Z,7.73
2023-11-17T20:09:41.112Z,7.27
2023-11-17T20:12:08.850Z,7.50
2023-11-17T20:14:36.131Z,7.53
2023-11-17T20:17:03.596Z,7.83
2023-11-17T20:19:30.529Z,8.10
2023-11-17T20:21:57.077Z,7.60
2023-11-17T20:24:26.602Z,8.83
2023-11-17T20:26:53.192Z,8.10
2023-11-17T20:29:21.697Z,8.13
2023-11-17T20:31:49.448Z,7.50
2023-11-17T20:34:17.960Z,5.73
2023-11-17T20:36:45.109Z,5.30
2023-11-17T20:39:18.684Z,6.20
2023-11-17T20:41:46.471Z,3.93
2023-11-17T20:44:16.041Z,6.70
2023-11-17T20:46:43.622Z,7.20
2023-11-17T20:49:14.362Z,7.57
2023-11-17T20:51:41.338Z,6.77
2023-11-17T20:54:11.426Z,6.77
2023-11-17T20:56:38.834Z,6.40
2023-11-17T20:59:08.355Z,5.87
2023-11-17T21:01:35.298Z,6.00
2023-11-17T21:04:02.570Z,5.03
2023-11-17T21:06:30.346Z,6.33
2023-11-17T21:08:56.929Z,5.60
2023-11-17T21:11:23.627Z,5.00
2023-11-17T21:13:50.379Z,5.93
2023-11-17T21:16:18.334Z,6.37
2023-11-17T21:18:45.126Z,6.73
2023-11-17T21:21:14.618Z,6.90
2023-11-17T21:23:41.262Z,5.97
2023-11-17T21:26:09.469Z,6.63
2023-11-17T21:28:36.637Z,6.63
2023-11-17T21:31:06.351Z,6.57
2023-11-17T21:33:32.977Z,6.83
2023-11-17T21:36:01.929Z,6.53
2023-11-17T21:38:31.156Z,6.47
2023-11-17T21:40:58.116Z,6.27
2023-11-17T21:43:25.425Z,5.80
2023-11-17T21:45:55.077Z,6.17
2023-11-17T21:48:21.988Z,6.90
2023-11-17T21:50:48.618Z,5.90
2023-11-17T21:53:16.699Z,6.53
2023-11-17T21:55:43.663Z,7.43
2023-11-17T21:58:10.381Z,9.30
2023-11-17T22:00:37.027Z,13.87
2023-11-17T22:03:05.613Z,17.37
2023-11-17T22:05:32.363Z,16.57
2023-11-17T22:07:59.104Z,16.60
2023-11-17T22:10:25.864Z,13.77
2023-11-17T22:12:52.497Z,9.67
2023-11-17T22:15:19.918Z,9.00
2023-11-17T22:17:46.904Z,11.13
2023-11-17T22:20:14.518Z,12.20
2023-11-17T22:22:41.588Z,9.77
2023-11-17T22:25:11.711Z,11.67
2023-11-17T22:27:39.449Z,9.57
2023-11-17T22:30:13.976Z,9.57
2023-11-17T22:32:44.378Z,8.90
2023-11-17T22:35:13.534Z,9.33
2023-11-17T22:37:41.213Z,9.40
2023-11-17T22:40:12.319Z,10.13
2023-11-17T22:42:39.743Z,19.20
2023-11-17T22:45:06.611Z,10.53
2023-11-17T22:47:33.226Z,9.53
2023-11-17T22:49:59.859Z,8.50
2023-11-17T22:52:26.471Z,9.80
2023-11-17T22:54:53.083Z,10.37
2023-11-17T22:57:19.828Z,9.37
2023-11-17T22:59:46.329Z,7.93
2023-11-17T23:02:14.643Z,8.60
2023-11-17T23:04:41.264Z,7.90
2023-11-17T23:07:07.907Z,8.33
2023-11-17T23:09:34.921Z,10.73
2023-11-17T23:12:01.465Z,8.03
2023-11-17T23:14:29.515Z,8.90
2023-11-17T23:16:56.117Z,10.00
2023-11-17T23:19:22.851Z,9.67
2023-11-17T23:21:49.387Z,8.47
2023-11-17T23:24:15.975Z,7.73
2023-11-17T23:26:42.548Z,7.77
2023-11-17T23:29:09.859Z,7.40
2023-11-17T23:31:36.545Z,7.77
2023-11-17T23:34:04.611Z,7.50
2023-11-17T23:36:31.271Z,7.50
2023-11-17T23:38:59.060Z,6.40
2023-11-17T23:41:26.690Z,6.53
2023-11-17T23:43:55.205Z,6.57
2023-11-17T23:46:24.261Z,6.67
2023-11-17T23:48:51.168Z,6.60
2023-11-17T23:51:17.752Z,6.40
2023-11-17T23:53:45.035Z,5.80
2023-11-17T23:56:12.297Z,6.23
2023-11-17T23:58:38.994Z,5.80
